Weather reports worldwide

Advertisment
Palacios de la Sierra, Spain (8149): temperature & dewpoint: 13.03.2019 10:00:00 - 19.03.2019 10:00:00 (CET)Palacios de la Sierra, Spain (8149): wind speed & gusts: 13.03.2019 10:00:00 - 19.03.2019 10:00:00 (CET)Palacios de la Sierra, Spain (8149): wind direction: 13.03.2019 10:00:00 - 19.03.2019 10:00:00 (CET)Palacios de la Sierra, Spain (8149): visibility: 13.03.2019 10:00:00 - 19.03.2019 10:00:00 (CET)Palacios de la Sierra, Spain (8149): sunshine duration: 13.03.2019 10:00:00 - 19.03.2019 10:00:00 (CET)Palacios de la Sierra, Spain (8149): precipitation: 13.03.2019 10:00:00 - 19.03.2019 10:00:00 (CET)
Date & Time tt [°C] td [°C] ff [km/h] ff [kn] fx [km/h] fx [kn] dd vv [km] sd [min] rr [mm]
19.03.2019 10:00:00 - - - - - - - - - -
19.03.2019 09:00:00 2,1 0,4 19 11 33 18 W 20 0 0,0
19.03.2019 08:00:00 1,6 -0,3 17 9 31 17 W 20 0 0,0
19.03.2019 07:00:00 2,1 -1,2 14 8 28 15 W 20 0 -
19.03.2019 06:00:00 3,1 -2,0 14 8 36 19 WNW 20 0 0,0
19.03.2019 05:00:00 2,9 -2,2 10 6 27 15 WNW 20 0 0,0
19.03.2019 04:00:00 2,5 -3,3 12 7 26 14 NW 20 0 0,0
19.03.2019 03:00:00 3,0 -2,7 13 7 29 16 W 20 0 0,0
19.03.2019 02:00:00 3,1 -3,3 11 6 29 16 NW 20 0 0,0
19.03.2019 01:00:00 3,1 -3,6 10 5 23 12 WNW 20 0 -
19.03.2019 00:00:00 2,5 -4,2 4 2 30 16 S 20 0 0,0
18.03.2019 23:00:00 3,1 -4,5 13 7 30 16 NE 20 0 0,0
18.03.2019 22:00:00 2,7 -4,2 2 1 17 9 S 20 0 0,0
18.03.2019 21:00:00 2,8 -3,3 4 2 18 10 WSW 20 0 0,0
18.03.2019 20:00:00 4,0 -4,2 7 4 16 9 SW 20 0 0,0
18.03.2019 19:00:00 5,5 -4,5 10 5 27 15 NW 20 12 -
18.03.2019 18:00:00 6,6 -4,5 13 7 35 19 N 20 15 0,0
18.03.2019 17:00:00 8,3 -5,7 11 6 29 16 NNE 20 56 0,0
18.03.2019 16:00:00 8,9 -5,4 19 10 35 19 NNE 20 60 0,0
18.03.2019 15:00:00 9,0 -3,9 16 9 37 20 E 20 60 0,0
18.03.2019 14:00:00 8,3 -2,7 20 11 35 19 E 20 60 0,0
18.03.2019 13:00:00 7,0 -3,0 18 10 31 17 E 20 48 -
18.03.2019 12:00:00 6,0 -3,9 16 8 37 20 NNE 20 60 0,0
18.03.2019 11:00:00 4,8 -5,4 18 10 36 20 N 20 51 0,0
18.03.2019 10:00:00 5,0 -4,2 10 5 25 14 NE 20 59 0,0
18.03.2019 09:00:00 3,6 -4,5 4 2 11 6 SSE 20 42 0,0
18.03.2019 08:00:00 -0,5 -5,4 4 2 17 9 ENE 20 7 0,0
18.03.2019 07:00:00 -0,6 -6,0 6 3 22 12 WNW 20 0 -
18.03.2019 06:00:00 -1,4 -6,0 9 5 23 12 S 20 0 0,0
18.03.2019 05:00:00 -0,4 -6,0 7 4 15 8 SW 20 0 0,0
18.03.2019 04:00:00 -0,4 -6,7 5 3 18 10 S 20 0 0,0
18.03.2019 03:00:00 -0,1 -7,5 5 3 24 13 NE 20 0 0,0
18.03.2019 02:00:00 1,0 -6,0 13 7 30 16 E 20 0 0,0
18.03.2019 01:00:00 1,3 -5,1 10 5 19 10 S 20 0 -
18.03.2019 00:00:00 2,1 -3,9 9 5 16 9 S 20 0 0,0
17.03.2019 23:00:00 2,3 -2,2 9 5 17 9 S 20 0 0,0
17.03.2019 22:00:00 2,7 -2,2 4 2 14 8 SW 20 0 0,0
17.03.2019 21:00:00 2,8 -1,4 3 2 12 6 N 20 0 0,0
17.03.2019 20:00:00 4,6 -0,5 11 6 18 10 ESE 20 0 0,0
17.03.2019 19:00:00 6,7 -0,3 9 5 22 12 E 20 39 -
17.03.2019 18:00:00 9,2 -0,7 11 6 27 15 NNE 20 58 0,0
17.03.2019 17:00:00 10,5 -0,7 16 9 37 20 NNW 20 50 0,0
17.03.2019 16:00:00 10,5 1,1 18 10 - - N 20 31 0,0
17.03.2019 15:00:00 12,7 0,6 - - - - - 20 53 0,0
17.03.2019 14:00:00 12,5 -1,2 - - - - - 20 58 0,0
17.03.2019 13:00:00 11,1 -0,7 17 9 - - W 20 45 -
17.03.2019 12:00:00 10,4 -1,7 16 9 31 17 W 20 57 0,0
17.03.2019 11:00:00 9,3 -1,4 16 8 29 16 WNW 20 60 0,0
17.03.2019 10:00:00 8,1 -1,0 14 8 25 14 W 20 60 0,0
17.03.2019 09:00:00 2,4 -1,2 3 1 6 4 NE 20 60 0,0
17.03.2019 08:00:00 -1,5 -3,6 3 1 14 7 ENE 19 25 0,0
17.03.2019 07:00:00 -1,7 -3,6 3 1 8 4 SW 20 0 -
17.03.2019 06:00:00 -0,9 -3,3 6 3 14 8 ESE 20 0 0,0
17.03.2019 05:00:00 0,1 -3,0 4 2 18 10 SSE 20 0 0,0
17.03.2019 04:00:00 0,9 -2,7 4 2 12 6 SE 20 0 0,0
17.03.2019 03:00:00 1,6 -2,5 4 2 17 9 SE 20 0 0,0
17.03.2019 02:00:00 1,7 -2,7 1 1 13 7 SSE 20 0 0,0
17.03.2019 01:00:00 3,7 -2,2 5 3 10 5 SSE 20 0 -
17.03.2019 00:00:00 4,9 -2,2 5 3 16 9 S 20 0 0,0
16.03.2019 23:00:00 5,9 -2,2 5 3 14 8 S 20 0 0,0
16.03.2019 22:00:00 8,5 -2,2 5 3 10 6 SSE 20 0 0,0
16.03.2019 21:00:00 9,9 -2,7 0 0 10 5 N 18 0 0,0
16.03.2019 20:00:00 14,2 -4,2 9 5 21 12 W 20 0 0,0
16.03.2019 19:00:00 16,5 -4,2 13 7 - - W 20 37 -
16.03.2019 18:00:00 20,5 -4,8 7 4 - - W 20 60 0,0
16.03.2019 17:00:00 20,6 -5,4 - - - - - 20 60 0,0
16.03.2019 16:00:00 21,0 -5,1 15 8 - - W 20 60 0,0
16.03.2019 15:00:00 20,4 -5,4 16 9 45 24 W 20 60 0,0
16.03.2019 14:00:00 20,4 -6,4 13 7 34 18 WSW 20 60 0,0
16.03.2019 13:00:00 19,7 -5,4 11 6 27 15 SW 20 60 -
16.03.2019 12:00:00 18,6 -5,4 9 5 23 13 W 20 60 0,0
16.03.2019 11:00:00 15,3 -5,7 9 5 15 8 E 20 60 0,0
16.03.2019 10:00:00 8,6 -4,5 3 2 9 5 E 20 60 0,0
16.03.2019 09:00:00 1,4 -6,0 6 3 54 29 SSE 20 60 0,0
16.03.2019 08:00:00 -2,2 -7,5 8 5 18 10 S 20 25 0,0
16.03.2019 07:00:00 -3,2 -7,1 8 5 19 10 SSE 20 0 -
16.03.2019 06:00:00 -2,5 -6,7 10 5 18 10 SSE 20 0 0,0
16.03.2019 05:00:00 -2,0 -6,0 8 4 23 12 SSE 20 0 0,0
16.03.2019 04:00:00 -2,3 -5,4 14 8 21 12 S 20 0 0,0
16.03.2019 03:00:00 -1,3 -5,1 6 3 24 13 SSE 20 0 0,0
16.03.2019 02:00:00 0,1 -4,8 7 4 19 11 SSE 20 0 0,0
16.03.2019 01:00:00 0,9 -4,5 5 3 18 10 SE 20 0 -
16.03.2019 00:00:00 2,7 -4,2 10 5 19 11 S 20 0 0,0
15.03.2019 23:00:00 3,3 -4,2 5 3 13 7 S 20 0 0,0
15.03.2019 22:00:00 5,2 -3,9 4 2 12 7 S 20 0 0,0
15.03.2019 21:00:00 7,0 -4,2 2 1 10 6 E 20 0 0,0
15.03.2019 20:00:00 11,5 -6,0 3 2 13 7 ENE 20 0 0,0
15.03.2019 19:00:00 14,9 -6,0 7 4 21 11 WNW 20 36 -
15.03.2019 18:00:00 18,4 -5,7 13 7 25 14 W 20 60 0,0
15.03.2019 17:00:00 19,3 -7,8 16 8 29 15 WNW 20 60 0,0
15.03.2019 16:00:00 19,5 -7,1 15 8 31 17 WNW 20 60 0,0
15.03.2019 15:00:00 18,9 -3,9 16 8 28 15 WNW 20 60 0,0
15.03.2019 14:00:00 17,5 -4,5 14 7 24 13 WNW 20 60 0,0
15.03.2019 13:00:00 16,2 -8,2 14 8 28 15 WNW 20 60 -
15.03.2019 12:00:00 14,3 -3,0 12 6 20 11 W 20 60 0,0
15.03.2019 11:00:00 12,4 -1,0 9 5 18 10 W 20 60 0,0
15.03.2019 10:00:00 6,6 -0,5 2 1 5 3 NNW 20 60 0,0
15.03.2019 09:00:00 1,2 -2,5 0 0 6 3 N 20 60 0,0
15.03.2019 08:00:00 -2,3 -4,5 2 1 5 3 SE 20 23 0,0
15.03.2019 07:00:00 -3,3 -5,1 1 1 6 3 SSE 20 0 -
15.03.2019 06:00:00 -2,9 -5,1 3 2 11 6 SE 20 0 0,0
15.03.2019 05:00:00 -3,0 -5,1 3 1 11 6 ESE 20 0 0,0
15.03.2019 04:00:00 -3,1 -4,8 1 1 3 2 NE 20 0 0,0
15.03.2019 03:00:00 -2,8 -4,8 1 1 6 3 SW 20 0 0,0
15.03.2019 02:00:00 -2,2 -4,8 1 1 11 6 SE 20 0 0,0
15.03.2019 01:00:00 -1,6 -4,5 0 0 4 2 N 20 0 -
15.03.2019 00:00:00 0,3 -3,9 4 2 11 6 ESE 20 0 0,0
14.03.2019 23:00:00 1,2 -3,6 1 1 11 6 S 20 0 0,0
14.03.2019 22:00:00 3,3 -3,3 3 2 8 5 WSW 20 0 0,0
14.03.2019 21:00:00 5,6 -3,3 3 2 16 9 WNW 20 0 0,0
14.03.2019 20:00:00 7,3 -3,3 10 5 18 10 W 20 0 0,0
14.03.2019 19:00:00 9,7 -3,6 6 4 33 18 W 20 34 -
14.03.2019 18:00:00 11,9 -5,1 19 10 39 21 W 20 60 0,0
14.03.2019 17:00:00 12,7 -4,5 20 11 43 23 W 20 60 0,0
14.03.2019 16:00:00 12,5 -4,2 23 13 41 22 WNW 20 60 0,0
14.03.2019 15:00:00 12,3 -3,0 21 12 - - W 20 - -
14.03.2019 14:00:00 11,3 -4,5 21 11 36 20 WNW 20 60 0,0
14.03.2019 13:00:00 - - - - - - - - - -
14.03.2019 12:00:00 - - - - - - - - - -
14.03.2019 11:00:00 - - - - - - - - - -
14.03.2019 10:00:00 - - - - - - - - - -
14.03.2019 09:00:00 - - - - - - - - - -
14.03.2019 08:00:00 - - - - - - - - - -
14.03.2019 07:00:00 - - - - - - - - - -
14.03.2019 06:00:00 - - - - - - - - - -
14.03.2019 05:00:00 - - - - - - - - - -
14.03.2019 04:00:00 - - - - - - - - - -
14.03.2019 03:00:00 - - - - - - - - - -
14.03.2019 02:00:00 - - - - - - - - - -
14.03.2019 01:00:00 - - - - - - - - - -
14.03.2019 00:00:00 - - - - - - - - - -
13.03.2019 23:00:00 - - - - - - - - - -
13.03.2019 22:00:00 - - - - - - - - - -
13.03.2019 21:00:00 - - - - - - - - - -
13.03.2019 20:00:00 - - - - - - - - - -
13.03.2019 19:00:00 - - - - - - - - - -
13.03.2019 18:00:00 - - - - - - - - - -
13.03.2019 17:00:00 - - - - - - - - - -
13.03.2019 16:00:00 - - - - - - - - - -
13.03.2019 15:00:00 - - - - - - - - - -
13.03.2019 14:00:00 - - - - - - - - - -
13.03.2019 13:00:00 - - - - - - - - - -
13.03.2019 12:00:00 - - - - - - - - - -
13.03.2019 11:00:00 - - - - - - - - - -
13.03.2019 10:00:00 - - - - - - - - - -

tt = temperature
td = dewpoint
ff = wind speed
fx = gusts
dd = wind direction
vv = visibility
sd = sunshine duration
rr = precipitation

Next stations